sensor_id;sensor_type;location;lat;lon;timestamp;P1;durP1;ratioP1;P2;durP2;ratioP2
78416;SDS011;67715;46.170;6.140;2023-04-05T00:00:15;4.18;;;3.20;;
78416;SDS011;67715;46.170;6.140;2023-04-05T00:02:40;4.63;;;3.15;;
78416;SDS011;67715;46.170;6.140;2023-04-05T00:05:06;5.40;;;3.17;;
78416;SDS011;67715;46.170;6.140;2023-04-05T00:07:32;5.38;;;3.30;;
78416;SDS011;67715;46.170;6.140;2023-04-05T00:09:58;5.38;;;3.70;;
78416;SDS011;67715;46.170;6.140;2023-04-05T00:12:24;4.63;;;3.80;;
78416;SDS011;67715;46.170;6.140;2023-04-05T00:14:49;4.77;;;3.30;;
78416;SDS011;67715;46.170;6.140;2023-04-05T00:17:15;6.22;;;3.47;;
78416;SDS011;67715;46.170;6.140;2023-04-05T00:19:40;5.30;;;3.47;;
78416;SDS011;67715;46.170;6.140;2023-04-05T00:22:06;5.72;;;3.28;;
78416;SDS011;67715;46.170;6.140;2023-04-05T00:24:34;6.10;;;3.25;;
78416;SDS011;67715;46.170;6.140;2023-04-05T00:27:02;6.53;;;3.22;;
78416;SDS011;67715;46.170;6.140;2023-04-05T00:29:28;4.65;;;3.25;;
78416;SDS011;67715;46.170;6.140;2023-04-05T00:31:54;4.73;;;3.63;;
78416;SDS011;67715;46.170;6.140;2023-04-05T00:34:20;5.22;;;3.33;;
78416;SDS011;67715;46.170;6.140;2023-04-05T00:36:45;4.20;;;3.50;;
78416;SDS011;67715;46.170;6.140;2023-04-05T00:39:10;7.35;;;3.70;;
78416;SDS011;67715;46.170;6.140;2023-04-05T00:41:36;5.30;;;4.10;;
78416;SDS011;67715;46.170;6.140;2023-04-05T00:44:01;5.93;;;3.40;;
78416;SDS011;67715;46.170;6.140;2023-04-05T00:46:27;4.72;;;3.03;;
78416;SDS011;67715;46.170;6.140;2023-04-05T00:48:53;4.22;;;3.25;;
78416;SDS011;67715;46.170;6.140;2023-04-05T00:51:19;5.93;;;3.50;;
78416;SDS011;67715;46.170;6.140;2023-04-05T00:53:44;5.53;;;3.70;;
78416;SDS011;67715;46.170;6.140;2023-04-05T00:56:11;5.28;;;3.33;;
78416;SDS011;67715;46.170;6.140;2023-04-05T00:58:37;5.40;;;3.58;;
78416;SDS011;67715;46.170;6.140;2023-04-05T01:03:45;5.28;;;3.78;;
78416;SDS011;67715;46.170;6.140;2023-04-05T01:09:13;5.00;;;3.85;;
78416;SDS011;67715;46.170;6.140;2023-04-05T01:11:44;5.50;;;3.70;;
78416;SDS011;67715;46.170;6.140;2023-04-05T01:14:11;4.72;;;3.42;;
78416;SDS011;67715;46.170;6.140;2023-04-05T01:16:36;5.47;;;3.67;;
78416;SDS011;67715;46.170;6.140;2023-04-05T01:19:02;4.90;;;3.60;;
78416;SDS011;67715;46.170;6.140;2023-04-05T01:21:36;6.43;;;3.55;;
78416;SDS011;67715;46.170;6.140;2023-04-05T01:27:07;6.82;;;3.60;;
78416;SDS011;67715;46.170;6.140;2023-04-05T01:37:22;4.75;;;3.95;;
78416;SDS011;67715;46.170;6.140;2023-04-05T01:39:51;5.20;;;3.92;;
78416;SDS011;67715;46.170;6.140;2023-04-05T01:42:21;7.15;;;4.00;;
78416;SDS011;67715;46.170;6.140;2023-04-05T01:44:49;5.25;;;3.70;;
78416;SDS011;67715;46.170;6.140;2023-04-05T01:47:14;6.05;;;3.95;;
78416;SDS011;67715;46.170;6.140;2023-04-05T01:49:40;5.33;;;3.97;;
78416;SDS011;67715;46.170;6.140;2023-04-05T01:52:05;6.97;;;4.30;;
78416;SDS011;67715;46.170;6.140;2023-04-05T01:54:30;5.93;;;3.97;;
78416;SDS011;67715;46.170;6.140;2023-04-05T01:56:55;6.47;;;3.93;;
78416;SDS011;67715;46.170;6.140;2023-04-05T01:59:21;5.00;;;3.83;;
78416;SDS011;67715;46.170;6.140;2023-04-05T02:01:46;7.03;;;4.03;;
78416;SDS011;67715;46.170;6.140;2023-04-05T02:04:12;5.33;;;3.90;;
78416;SDS011;67715;46.170;6.140;2023-04-05T02:06:37;5.40;;;3.67;;
78416;SDS011;67715;46.170;6.140;2023-04-05T02:09:02;6.40;;;4.20;;
78416;SDS011;67715;46.170;6.140;2023-04-05T02:11:27;4.17;;;3.63;;
78416;SDS011;67715;46.170;6.140;2023-04-05T02:13:53;8.03;;;4.20;;
78416;SDS011;67715;46.170;6.140;2023-04-05T02:16:18;6.27;;;4.70;;
78416;SDS011;67715;46.170;6.140;2023-04-05T02:18:43;5.90;;;3.90;;
78416;SDS011;67715;46.170;6.140;2023-04-05T02:21:14;8.65;;;4.35;;
78416;SDS011;67715;46.170;6.140;2023-04-05T02:23:41;7.15;;;4.53;;
78416;SDS011;67715;46.170;6.140;2023-04-05T02:26:06;6.47;;;4.10;;
78416;SDS011;67715;46.170;6.140;2023-04-05T02:28:32;5.53;;;4.27;;
78416;SDS011;67715;46.170;6.140;2023-04-05T02:30:57;7.17;;;5.00;;
78416;SDS011;67715;46.170;6.140;2023-04-05T02:33:22;6.50;;;4.10;;
78416;SDS011;67715;46.170;6.140;2023-04-05T02:35:48;7.83;;;3.70;;
78416;SDS011;67715;46.170;6.140;2023-04-05T02:38:14;5.70;;;4.25;;
78416;SDS011;67715;46.170;6.140;2023-04-05T02:40:39;7.25;;;4.07;;
78416;SDS011;67715;46.170;6.140;2023-04-05T02:43:05;6.70;;;4.18;;
78416;SDS011;67715;46.170;6.140;2023-04-05T02:45:31;5.97;;;4.40;;
78416;SDS011;67715;46.170;6.140;2023-04-05T02:47:56;8.07;;;4.38;;
78416;SDS011;67715;46.170;6.140;2023-04-05T02:50:22;8.40;;;4.30;;
78416;SDS011;67715;46.170;6.140;2023-04-05T02:52:47;6.80;;;4.40;;
78416;SDS011;67715;46.170;6.140;2023-04-05T02:55:13;5.90;;;4.30;;
78416;SDS011;67715;46.170;6.140;2023-04-05T02:57:39;6.50;;;4.55;;
78416;SDS011;67715;46.170;6.140;2023-04-05T03:00:06;6.18;;;3.85;;
78416;SDS011;67715;46.170;6.140;2023-04-05T03:02:32;4.55;;;3.95;;
78416;SDS011;67715;46.170;6.140;2023-04-05T03:04:58;8.38;;;4.38;;
78416;SDS011;67715;46.170;6.140;2023-04-05T03:07:26;5.88;;;4.03;;
78416;SDS011;67715;46.170;6.140;2023-04-05T03:09:51;6.18;;;4.55;;
78416;SDS011;67715;46.170;6.140;2023-04-05T03:12:17;7.22;;;4.30;;
78416;SDS011;67715;46.170;6.140;2023-04-05T03:14:43;5.67;;;4.10;;
78416;SDS011;67715;46.170;6.140;2023-04-05T03:17:10;7.43;;;4.57;;
78416;SDS011;67715;46.170;6.140;2023-04-05T03:19:35;9.07;;;5.18;;
78416;SDS011;67715;46.170;6.140;2023-04-05T03:22:00;9.07;;;4.87;;
78416;SDS011;67715;46.170;6.140;2023-04-05T03:24:25;6.87;;;4.50;;
78416;SDS011;67715;46.170;6.140;2023-04-05T03:26:51;8.07;;;4.43;;
78416;SDS011;67715;46.170;6.140;2023-04-05T03:29:16;6.17;;;4.40;;
78416;SDS011;67715;46.170;6.140;2023-04-05T03:31:41;6.73;;;4.33;;
78416;SDS011;67715;46.170;6.140;2023-04-05T03:34:08;5.50;;;4.32;;
78416;SDS011;67715;46.170;6.140;2023-04-05T03:36:33;6.93;;;4.67;;
78416;SDS011;67715;46.170;6.140;2023-04-05T03:39:09;6.45;;;4.55;;
78416;SDS011;67715;46.170;6.140;2023-04-05T03:41:39;6.95;;;4.22;;
78416;SDS011;67715;46.170;6.140;2023-04-05T03:44:05;8.65;;;4.05;;
78416;SDS011;67715;46.170;6.140;2023-04-05T03:46:31;7.80;;;4.78;;
78416;SDS011;67715;46.170;6.140;2023-04-05T03:48:56;6.53;;;4.27;;
78416;SDS011;67715;46.170;6.140;2023-04-05T03:51:22;6.97;;;4.40;;
78416;SDS011;67715;46.170;6.140;2023-04-05T03:53:48;6.00;;;4.18;;
78416;SDS011;67715;46.170;6.140;2023-04-05T03:56:13;7.45;;;4.85;;
78416;SDS011;67715;46.170;6.140;2023-04-05T03:58:39;6.18;;;4.65;;
78416;SDS011;67715;46.170;6.140;2023-04-05T04:01:05;7.85;;;4.47;;
78416;SDS011;67715;46.170;6.140;2023-04-05T04:03:31;5.55;;;4.20;;
78416;SDS011;67715;46.170;6.140;2023-04-05T04:05:56;7.87;;;4.60;;
78416;SDS011;67715;46.170;6.140;2023-04-05T04:08:22;6.93;;;4.57;;
78416;SDS011;67715;46.170;6.140;2023-04-05T04:10:47;6.00;;;4.65;;
78416;SDS011;67715;46.170;6.140;2023-04-05T04:13:13;6.85;;;4.30;;
78416;SDS011;67715;46.170;6.140;2023-04-05T04:15:38;5.65;;;5.07;;
78416;SDS011;67715;46.170;6.140;2023-04-05T04:18:04;10.88;;;5.45;;
78416;SDS011;67715;46.170;6.140;2023-04-05T04:20:29;7.80;;;4.90;;
78416;SDS011;67715;46.170;6.140;2023-04-05T04:22:57;12.20;;;7.00;;
78416;SDS011;67715;46.170;6.140;2023-04-05T04:25:22;8.52;;;5.53;;
78416;SDS011;67715;46.170;6.140;2023-04-05T04:27:50;11.05;;;6.65;;
78416;SDS011;67715;46.170;6.140;2023-04-05T04:30:17;7.15;;;5.60;;
78416;SDS011;67715;46.170;6.140;2023-04-05T04:32:46;8.27;;;4.95;;
78416;SDS011;67715;46.170;6.140;2023-04-05T04:35:26;7.47;;;4.55;;
78416;SDS011;67715;46.170;6.140;2023-04-05T04:37:56;7.70;;;4.22;;
78416;SDS011;67715;46.170;6.140;2023-04-05T04:40:29;6.55;;;4.35;;
78416;SDS011;67715;46.170;6.140;2023-04-05T04:45:30;6.50;;;4.28;;
78416;SDS011;67715;46.170;6.140;2023-04-05T04:48:01;7.88;;;4.75;;
78416;SDS011;67715;46.170;6.140;2023-04-05T04:50:29;7.80;;;5.43;;
78416;SDS011;67715;46.170;6.140;2023-04-05T04:52:55;10.25;;;5.20;;
78416;SDS011;67715;46.170;6.140;2023-04-05T04:55:20;10.30;;;6.17;;
78416;SDS011;67715;46.170;6.140;2023-04-05T04:57:50;9.20;;;6.25;;
78416;SDS011;67715;46.170;6.140;2023-04-05T05:00:16;9.60;;;6.05;;
78416;SDS011;67715;46.170;6.140;2023-04-05T05:02:42;9.45;;;5.55;;
78416;SDS011;67715;46.170;6.140;2023-04-05T05:05:09;7.47;;;5.95;;
78416;SDS011;67715;46.170;6.140;2023-04-05T05:07:35;8.80;;;5.50;;
78416;SDS011;67715;46.170;6.140;2023-04-05T05:10:01;11.40;;;6.22;;
78416;SDS011;67715;46.170;6.140;2023-04-05T05:12:27;9.10;;;5.65;;
78416;SDS011;67715;46.170;6.140;2023-04-05T05:14:53;8.38;;;5.45;;
78416;SDS011;67715;46.170;6.140;2023-04-05T05:17:19;11.23;;;5.27;;
78416;SDS011;67715;46.170;6.140;2023-04-05T05:19:44;7.10;;;5.07;;
78416;SDS011;67715;46.170;6.140;2023-04-05T05:22:10;7.03;;;4.87;;
78416;SDS011;67715;46.170;6.140;2023-04-05T05:24:35;9.73;;;5.40;;
78416;SDS011;67715;46.170;6.140;2023-04-05T05:27:01;10.45;;;5.55;;
78416;SDS011;67715;46.170;6.140;2023-04-05T05:29:26;9.50;;;6.57;;
78416;SDS011;67715;46.170;6.140;2023-04-05T05:31:51;7.53;;;5.10;;
78416;SDS011;67715;46.170;6.140;2023-04-05T05:34:17;10.40;;;5.70;;
78416;SDS011;67715;46.170;6.140;2023-04-05T05:36:43;8.70;;;5.65;;
78416;SDS011;67715;46.170;6.140;2023-04-05T05:39:08;7.37;;;4.90;;
78416;SDS011;67715;46.170;6.140;2023-04-05T05:41:33;9.47;;;5.60;;
78416;SDS011;67715;46.170;6.140;2023-04-05T05:43:59;9.18;;;4.97;;
78416;SDS011;67715;46.170;6.140;2023-04-05T05:46:25;9.70;;;5.65;;
78416;SDS011;67715;46.170;6.140;2023-04-05T05:48:50;9.23;;;6.28;;
78416;SDS011;67715;46.170;6.140;2023-04-05T05:51:15;7.05;;;5.50;;
78416;SDS011;67715;46.170;6.140;2023-04-05T05:53:42;9.68;;;5.63;;
78416;SDS011;67715;46.170;6.140;2023-04-05T05:56:07;8.63;;;5.50;;
78416;SDS011;67715;46.170;6.140;2023-04-05T05:58:32;7.20;;;5.27;;
78416;SDS011;67715;46.170;6.140;2023-04-05T06:00:58;16.58;;;8.52;;
78416;SDS011;67715;46.170;6.140;2023-04-05T06:03:24;11.48;;;6.72;;
78416;SDS011;67715;46.170;6.140;2023-04-05T06:05:55;11.73;;;7.55;;
78416;SDS011;67715;46.170;6.140;2023-04-05T06:08:23;10.75;;;7.63;;
78416;SDS011;67715;46.170;6.140;2023-04-05T06:10:48;15.35;;;5.95;;
78416;SDS011;67715;46.170;6.140;2023-04-05T06:13:14;11.20;;;6.32;;
78416;SDS011;67715;46.170;6.140;2023-04-05T06:15:41;12.95;;;7.13;;
78416;SDS011;67715;46.170;6.140;2023-04-05T06:18:07;13.45;;;6.72;;
78416;SDS011;67715;46.170;6.140;2023-04-05T06:20:32;9.77;;;5.83;;
78416;SDS011;67715;46.170;6.140;2023-04-05T06:22:58;13.17;;;6.47;;
78416;SDS011;67715;46.170;6.140;2023-04-05T06:25:23;10.17;;;5.50;;
78416;SDS011;67715;46.170;6.140;2023-04-05T06:27:48;7.30;;;4.88;;
78416;SDS011;67715;46.170;6.140;2023-04-05T06:30:14;7.60;;;4.68;;
78416;SDS011;67715;46.170;6.140;2023-04-05T06:32:39;8.20;;;5.07;;
78416;SDS011;67715;46.170;6.140;2023-04-05T06:35:05;6.07;;;4.60;;
78416;SDS011;67715;46.170;6.140;2023-04-05T06:37:30;6.80;;;4.93;;
78416;SDS011;67715;46.170;6.140;2023-04-05T06:39:56;7.53;;;5.03;;
78416;SDS011;67715;46.170;6.140;2023-04-05T06:42:22;6.20;;;4.43;;
78416;SDS011;67715;46.170;6.140;2023-04-05T06:44:48;7.73;;;4.90;;
78416;SDS011;67715;46.170;6.140;2023-04-05T06:47:13;8.30;;;4.70;;
78416;SDS011;67715;46.170;6.140;2023-04-05T06:49:38;6.60;;;5.00;;
78416;SDS011;67715;46.170;6.140;2023-04-05T06:52:04;5.37;;;4.23;;
78416;SDS011;67715;46.170;6.140;2023-04-05T06:54:33;5.50;;;4.45;;
78416;SDS011;67715;46.170;6.140;2023-04-05T06:56:58;9.80;;;4.63;;
78416;SDS011;67715;46.170;6.140;2023-04-05T06:59:24;9.10;;;5.10;;
78416;SDS011;67715;46.170;6.140;2023-04-05T07:01:49;7.88;;;4.88;;
78416;SDS011;67715;46.170;6.140;2023-04-05T07:04:15;5.80;;;4.75;;
78416;SDS011;67715;46.170;6.140;2023-04-05T07:06:40;7.45;;;4.70;;
78416;SDS011;67715;46.170;6.140;2023-04-05T07:09:05;6.10;;;4.47;;
78416;SDS011;67715;46.170;6.140;2023-04-05T07:11:31;6.22;;;4.53;;
78416;SDS011;67715;46.170;6.140;2023-04-05T07:14:00;5.45;;;4.10;;
78416;SDS011;67715;46.170;6.140;2023-04-05T07:16:25;7.88;;;4.85;;
78416;SDS011;67715;46.170;6.140;2023-04-05T07:18:51;6.80;;;4.85;;
78416;SDS011;67715;46.170;6.140;2023-04-05T07:21:16;5.82;;;4.47;;
78416;SDS011;67715;46.170;6.140;2023-04-05T07:23:41;6.33;;;4.93;;
78416;SDS011;67715;46.170;6.140;2023-04-05T07:26:07;7.23;;;4.90;;
78416;SDS011;67715;46.170;6.140;2023-04-05T07:28:32;7.63;;;5.30;;
78416;SDS011;67715;46.170;6.140;2023-04-05T07:30:59;5.95;;;4.68;;
78416;SDS011;67715;46.170;6.140;2023-04-05T07:33:25;7.22;;;4.47;;
78416;SDS011;67715;46.170;6.140;2023-04-05T07:35:54;9.00;;;4.93;;
78416;SDS011;67715;46.170;6.140;2023-04-05T07:38:20;5.47;;;4.65;;
78416;SDS011;67715;46.170;6.140;2023-04-05T07:40:49;12.30;;;6.70;;
78416;SDS011;67715;46.170;6.140;2023-04-05T07:43:15;9.00;;;4.70;;
78416;SDS011;67715;46.170;6.140;2023-04-05T07:45:41;8.82;;;4.80;;
78416;SDS011;67715;46.170;6.140;2023-04-05T07:48:07;7.70;;;5.70;;
78416;SDS011;67715;46.170;6.140;2023-04-05T07:50:32;8.37;;;5.10;;
78416;SDS011;67715;46.170;6.140;2023-04-05T07:52:58;8.07;;;4.57;;
78416;SDS011;67715;46.170;6.140;2023-04-05T07:55:24;7.22;;;4.55;;
78416;SDS011;67715;46.170;6.140;2023-04-05T07:57:51;5.65;;;4.10;;
78416;SDS011;67715;46.170;6.140;2023-04-05T08:00:17;6.68;;;4.10;;
78416;SDS011;67715;46.170;6.140;2023-04-05T08:02:43;7.28;;;4.28;;
78416;SDS011;67715;46.170;6.140;2023-04-05T08:05:08;7.27;;;5.07;;
78416;SDS011;67715;46.170;6.140;2023-04-05T08:07:34;7.40;;;4.87;;
78416;SDS011;67715;46.170;6.140;2023-04-05T08:09:59;8.32;;;5.00;;
78416;SDS011;67715;46.170;6.140;2023-04-05T08:12:25;6.32;;;5.45;;
78416;SDS011;67715;46.170;6.140;2023-04-05T08:14:50;6.40;;;5.13;;
78416;SDS011;67715;46.170;6.140;2023-04-05T08:17:16;7.13;;;4.60;;
78416;SDS011;67715;46.170;6.140;2023-04-05T08:19:41;7.25;;;5.70;;
78416;SDS011;67715;46.170;6.140;2023-04-05T08:22:07;6.17;;;5.40;;
78416;SDS011;67715;46.170;6.140;2023-04-05T08:24:32;8.97;;;5.23;;
78416;SDS011;67715;46.170;6.140;2023-04-05T08:26:57;11.80;;;5.53;;
78416;SDS011;67715;46.170;6.140;2023-04-05T08:29:23;9.73;;;5.60;;
78416;SDS011;67715;46.170;6.140;2023-04-05T08:31:48;7.75;;;5.35;;
78416;SDS011;67715;46.170;6.140;2023-04-05T08:34:13;6.10;;;4.57;;
78416;SDS011;67715;46.170;6.140;2023-04-05T08:36:39;6.83;;;4.83;;
78416;SDS011;67715;46.170;6.140;2023-04-05T08:39:04;7.93;;;4.82;;
78416;SDS011;67715;46.170;6.140;2023-04-05T08:41:39;8.80;;;5.23;;
78416;SDS011;67715;46.170;6.140;2023-04-05T08:44:07;6.40;;;5.45;;
78416;SDS011;67715;46.170;6.140;2023-04-05T08:46:34;8.13;;;5.32;;
78416;SDS011;67715;46.170;6.140;2023-04-05T08:48:59;9.23;;;5.68;;
78416;SDS011;67715;46.170;6.140;2023-04-05T08:51:28;7.10;;;5.50;;
78416;SDS011;67715;46.170;6.140;2023-04-05T08:53:55;6.03;;;5.10;;
78416;SDS011;67715;46.170;6.140;2023-04-05T08:56:21;11.03;;;5.27;;
78416;SDS011;67715;46.170;6.140;2023-04-05T08:59:05;9.27;;;5.15;;
78416;SDS011;67715;46.170;6.140;2023-04-05T09:01:32;10.00;;;5.75;;
78416;SDS011;67715;46.170;6.140;2023-04-05T09:04:03;8.18;;;5.68;;
78416;SDS011;67715;46.170;6.140;2023-04-05T09:06:30;9.43;;;6.05;;
78416;SDS011;67715;46.170;6.140;2023-04-05T09:08:55;7.33;;;4.67;;
78416;SDS011;67715;46.170;6.140;2023-04-05T09:11:22;9.27;;;5.53;;
78416;SDS011;67715;46.170;6.140;2023-04-05T09:13:47;14.90;;;6.13;;
78416;SDS011;67715;46.170;6.140;2023-04-05T09:16:13;7.03;;;5.40;;
78416;SDS011;67715;46.170;6.140;2023-04-05T09:18:40;5.10;;;4.60;;
78416;SDS011;67715;46.170;6.140;2023-04-05T09:21:05;8.23;;;5.05;;
78416;SDS011;67715;46.170;6.140;2023-04-05T09:23:32;6.70;;;5.23;;
78416;SDS011;67715;46.170;6.140;2023-04-05T09:25:58;7.30;;;4.93;;
78416;SDS011;67715;46.170;6.140;2023-04-05T09:28:30;6.27;;;4.57;;
78416;SDS011;67715;46.170;6.140;2023-04-05T09:31:03;5.38;;;4.88;;
78416;SDS011;67715;46.170;6.140;2023-04-05T09:33:29;6.18;;;4.60;;
78416;SDS011;67715;46.170;6.140;2023-04-05T09:35:54;5.83;;;4.60;;
78416;SDS011;67715;46.170;6.140;2023-04-05T09:38:20;7.97;;;4.97;;
78416;SDS011;67715;46.170;6.140;2023-04-05T09:41:08;6.00;;;5.30;;
78416;SDS011;67715;46.170;6.140;2023-04-05T09:43:36;5.88;;;4.28;;
78416;SDS011;67715;46.170;6.140;2023-04-05T09:46:05;7.78;;;4.20;;
78416;SDS011;67715;46.170;6.140;2023-04-05T09:48:46;6.10;;;4.40;;
78416;SDS011;67715;46.170;6.140;2023-04-05T09:51:18;5.13;;;4.63;;
78416;SDS011;67715;46.170;6.140;2023-04-05T09:56:26;7.55;;;4.20;;
78416;SDS011;67715;46.170;6.140;2023-04-05T09:58:52;9.32;;;5.03;;
78416;SDS011;67715;46.170;6.140;2023-04-05T10:01:20;6.43;;;4.63;;
78416;SDS011;67715;46.170;6.140;2023-04-05T10:03:46;5.53;;;4.47;;
78416;SDS011;67715;46.170;6.140;2023-04-05T10:06:12;5.60;;;4.72;;
78416;SDS011;67715;46.170;6.140;2023-04-05T10:08:38;5.97;;;4.07;;
78416;SDS011;67715;46.170;6.140;2023-04-05T10:11:03;6.80;;;5.03;;
78416;SDS011;67715;46.170;6.140;2023-04-05T10:13:30;6.80;;;4.32;;
78416;SDS011;67715;46.170;6.140;2023-04-05T10:15:55;6.22;;;4.75;;
78416;SDS011;67715;46.170;6.140;2023-04-05T10:18:23;7.18;;;5.03;;
78416;SDS011;67715;46.170;6.140;2023-04-05T10:20:54;4.82;;;4.30;;
78416;SDS011;67715;46.170;6.140;2023-04-05T10:23:26;6.55;;;5.00;;
78416;SDS011;67715;46.170;6.140;2023-04-05T10:28:30;8.15;;;4.85;;
78416;SDS011;67715;46.170;6.140;2023-04-05T10:33:38;6.60;;;4.53;;
78416;SDS011;67715;46.170;6.140;2023-04-05T10:39:12;5.47;;;4.43;;
78416;SDS011;67715;46.170;6.140;2023-04-05T10:41:41;5.03;;;4.53;;
78416;SDS011;67715;46.170;6.140;2023-04-05T10:44:11;5.47;;;4.68;;
78416;SDS011;67715;46.170;6.140;2023-04-05T10:46:38;8.60;;;5.40;;
78416;SDS011;67715;46.170;6.140;2023-04-05T10:49:38;6.30;;;4.72;;
78416;SDS011;67715;46.170;6.140;2023-04-05T10:52:00;6.00;;;4.55;;
78416;SDS011;67715;46.170;6.140;2023-04-05T10:54:27;8.48;;;5.45;;
78416;SDS011;67715;46.170;6.140;2023-04-05T10:56:52;6.03;;;5.00;;
78416;SDS011;67715;46.170;6.140;2023-04-05T10:59:19;6.10;;;4.93;;
78416;SDS011;67715;46.170;6.140;2023-04-05T11:01:44;8.07;;;5.22;;
78416;SDS011;67715;46.170;6.140;2023-04-05T11:04:11;7.28;;;4.93;;
78416;SDS011;67715;46.170;6.140;2023-04-05T11:06:39;6.00;;;4.97;;
78416;SDS011;67715;46.170;6.140;2023-04-05T11:09:19;7.60;;;5.50;;
78416;SDS011;67715;46.170;6.140;2023-04-05T11:11:48;6.65;;;5.25;;
78416;SDS011;67715;46.170;6.140;2023-04-05T11:14:22;8.45;;;4.93;;
78416;SDS011;67715;46.170;6.140;2023-04-05T11:16:50;6.75;;;5.55;;
78416;SDS011;67715;46.170;6.140;2023-04-05T11:22:07;8.55;;;5.90;;
78416;SDS011;67715;46.170;6.140;2023-04-05T11:24:49;6.72;;;5.53;;
78416;SDS011;67715;46.170;6.140;2023-04-05T11:27:24;6.35;;;4.55;;
78416;SDS011;67715;46.170;6.140;2023-04-05T11:29:53;5.43;;;4.82;;
78416;SDS011;67715;46.170;6.140;2023-04-05T11:32:19;6.25;;;5.05;;
78416;SDS011;67715;46.170;6.140;2023-04-05T11:34:56;6.75;;;5.20;;
78416;SDS011;67715;46.170;6.140;2023-04-05T11:40:30;8.38;;;4.97;;
78416;SDS011;67715;46.170;6.140;2023-04-05T11:43:05;7.80;;;5.75;;
78416;SDS011;67715;46.170;6.140;2023-04-05T11:45:34;5.60;;;4.78;;
78416;SDS011;67715;46.170;6.140;2023-04-05T11:48:04;7.35;;;4.93;;
78416;SDS011;67715;46.170;6.140;2023-04-05T11:50:30;6.10;;;4.88;;
78416;SDS011;67715;46.170;6.140;2023-04-05T11:53:12;7.32;;;5.90;;
78416;SDS011;67715;46.170;6.140;2023-04-05T11:55:39;6.88;;;5.25;;
78416;SDS011;67715;46.170;6.140;2023-04-05T12:03:03;6.65;;;4.93;;
78416;SDS011;67715;46.170;6.140;2023-04-05T12:05:43;6.43;;;5.10;;
78416;SDS011;67715;46.170;6.140;2023-04-05T12:08:15;7.43;;;4.40;;
78416;SDS011;67715;46.170;6.140;2023-04-05T12:10:41;7.05;;;5.95;;
78416;SDS011;67715;46.170;6.140;2023-04-05T12:13:07;6.43;;;5.40;;
78416;SDS011;67715;46.170;6.140;2023-04-05T12:15:35;7.17;;;5.63;;
78416;SDS011;67715;46.170;6.140;2023-04-05T12:18:02;8.40;;;5.18;;
78416;SDS011;67715;46.170;6.140;2023-04-05T12:20:27;6.78;;;5.28;;
78416;SDS011;67715;46.170;6.140;2023-04-05T12:22:53;6.47;;;4.60;;
78416;SDS011;67715;46.170;6.140;2023-04-05T12:25:19;8.10;;;5.70;;
78416;SDS011;67715;46.170;6.140;2023-04-05T12:27:45;6.25;;;5.07;;
78416;SDS011;67715;46.170;6.140;2023-04-05T12:35:10;5.80;;;4.40;;
78416;SDS011;67715;46.170;6.140;2023-04-05T12:37:36;6.05;;;3.92;;
78416;SDS011;67715;46.170;6.140;2023-04-05T12:40:03;5.72;;;3.78;;
78416;SDS011;67715;46.170;6.140;2023-04-05T12:42:32;5.20;;;4.05;;
78416;SDS011;67715;46.170;6.140;2023-04-05T12:45:11;7.70;;;4.55;;
78416;SDS011;67715;46.170;6.140;2023-04-05T12:47:46;5.25;;;3.92;;
78416;SDS011;67715;46.170;6.140;2023-04-05T12:50:14;6.45;;;3.85;;
78416;SDS011;67715;46.170;6.140;2023-04-05T12:55:21;4.18;;;2.78;;
78416;SDS011;67715;46.170;6.140;2023-04-05T12:57:54;2.78;;;2.25;;
78416;SDS011;67715;46.170;6.140;2023-04-05T13:00:23;3.38;;;2.47;;
78416;SDS011;67715;46.170;6.140;2023-04-05T13:02:50;3.55;;;2.28;;
78416;SDS011;67715;46.170;6.140;2023-04-05T13:05:17;6.97;;;3.45;;
78416;SDS011;67715;46.170;6.140;2023-04-05T13:07:52;4.05;;;2.78;;
78416;SDS011;67715;46.170;6.140;2023-04-05T13:10:18;4.82;;;2.90;;
78416;SDS011;67715;46.170;6.140;2023-04-05T13:12:44;5.22;;;2.83;;
78416;SDS011;67715;46.170;6.140;2023-04-05T13:15:10;3.78;;;2.60;;
78416;SDS011;67715;46.170;6.140;2023-04-05T13:17:35;4.03;;;2.63;;
78416;SDS011;67715;46.170;6.140;2023-04-05T13:20:01;4.57;;;3.20;;
78416;SDS011;67715;46.170;6.140;2023-04-05T13:22:27;5.32;;;3.10;;
78416;SDS011;67715;46.170;6.140;2023-04-05T13:24:52;4.77;;;3.23;;
78416;SDS011;67715;46.170;6.140;2023-04-05T13:27:18;4.90;;;2.53;;
78416;SDS011;67715;46.170;6.140;2023-04-05T13:29:44;4.43;;;2.65;;
78416;SDS011;67715;46.170;6.140;2023-04-05T13:32:09;4.15;;;2.58;;
78416;SDS011;67715;46.170;6.140;2023-04-05T13:34:34;4.63;;;2.80;;
78416;SDS011;67715;46.170;6.140;2023-04-05T13:37:00;5.50;;;3.47;;
78416;SDS011;67715;46.170;6.140;2023-04-05T13:39:25;3.80;;;2.70;;
78416;SDS011;67715;46.170;6.140;2023-04-05T13:41:50;5.60;;;3.47;;
78416;SDS011;67715;46.170;6.140;2023-04-05T13:44:15;3.10;;;2.63;;
78416;SDS011;67715;46.170;6.140;2023-04-05T13:46:41;3.23;;;2.47;;
78416;SDS011;67715;46.170;6.140;2023-04-05T13:49:06;2.40;;;2.20;;
78416;SDS011;67715;46.170;6.140;2023-04-05T13:51:31;4.00;;;2.40;;
78416;SDS011;67715;46.170;6.140;2023-04-05T13:53:58;3.40;;;2.90;;
78416;SDS011;67715;46.170;6.140;2023-04-05T13:56:23;4.22;;;2.72;;
78416;SDS011;67715;46.170;6.140;2023-04-05T13:58:49;3.10;;;2.40;;
78416;SDS011;67715;46.170;6.140;2023-04-05T14:01:14;4.65;;;2.78;;
78416;SDS011;67715;46.170;6.140;2023-04-05T14:03:40;5.63;;;3.10;;
78416;SDS011;67715;46.170;6.140;2023-04-05T14:06:05;5.73;;;3.13;;
78416;SDS011;67715;46.170;6.140;2023-04-05T14:08:30;4.68;;;3.20;;
78416;SDS011;67715;46.170;6.140;2023-04-05T14:10:56;5.93;;;3.57;;
78416;SDS011;67715;46.170;6.140;2023-04-05T14:13:21;3.80;;;2.70;;
78416;SDS011;67715;46.170;6.140;2023-04-05T14:15:46;4.43;;;3.07;;
78416;SDS011;67715;46.170;6.140;2023-04-05T14:18:13;5.32;;;3.20;;
78416;SDS011;67715;46.170;6.140;2023-04-05T14:20:38;5.80;;;3.03;;
78416;SDS011;67715;46.170;6.140;2023-04-05T14:23:04;12.17;;;4.77;;
78416;SDS011;67715;46.170;6.140;2023-04-05T14:25:29;6.27;;;3.40;;
78416;SDS011;67715;46.170;6.140;2023-04-05T14:27:54;6.43;;;3.35;;
78416;SDS011;67715;46.170;6.140;2023-04-05T14:30:20;6.27;;;3.17;;
78416;SDS011;67715;46.170;6.140;2023-04-05T14:32:45;6.60;;;3.60;;
78416;SDS011;67715;46.170;6.140;2023-04-05T14:35:10;4.82;;;3.22;;
78416;SDS011;67715;46.170;6.140;2023-04-05T14:37:36;4.97;;;2.93;;
78416;SDS011;67715;46.170;6.140;2023-04-05T14:40:01;5.10;;;3.33;;
78416;SDS011;67715;46.170;6.140;2023-04-05T14:42:27;5.07;;;3.28;;
78416;SDS011;67715;46.170;6.140;2023-04-05T14:44:52;6.32;;;3.92;;
78416;SDS011;67715;46.170;6.140;2023-04-05T14:47:17;6.20;;;4.03;;
78416;SDS011;67715;46.170;6.140;2023-04-05T14:49:43;5.40;;;3.43;;
78416;SDS011;67715;46.170;6.140;2023-04-05T14:52:08;7.23;;;4.10;;
78416;SDS011;67715;46.170;6.140;2023-04-05T14:54:33;5.70;;;3.78;;
78416;SDS011;67715;46.170;6.140;2023-04-05T14:56:59;6.65;;;3.90;;
78416;SDS011;67715;46.170;6.140;2023-04-05T14:59:24;5.87;;;3.70;;
78416;SDS011;67715;46.170;6.140;2023-04-05T15:01:50;5.70;;;4.03;;
78416;SDS011;67715;46.170;6.140;2023-04-05T15:04:15;5.60;;;3.90;;
78416;SDS011;67715;46.170;6.140;2023-04-05T15:06:41;6.57;;;4.43;;
78416;SDS011;67715;46.170;6.140;2023-04-05T15:09:06;5.50;;;4.13;;
78416;SDS011;67715;46.170;6.140;2023-04-05T15:11:31;5.97;;;3.65;;
78416;SDS011;67715;46.170;6.140;2023-04-05T15:13:59;5.45;;;4.10;;
78416;SDS011;67715;46.170;6.140;2023-04-05T15:16:25;7.10;;;3.92;;
78416;SDS011;67715;46.170;6.140;2023-04-05T15:18:50;7.65;;;4.38;;
78416;SDS011;67715;46.170;6.140;2023-04-05T15:21:15;6.67;;;3.93;;
78416;SDS011;67715;46.170;6.140;2023-04-05T15:23:41;6.65;;;4.25;;
78416;SDS011;67715;46.170;6.140;2023-04-05T15:26:07;6.15;;;3.95;;
78416;SDS011;67715;46.170;6.140;2023-04-05T15:28:32;7.83;;;4.40;;
78416;SDS011;67715;46.170;6.140;2023-04-05T15:30:57;6.63;;;4.10;;
78416;SDS011;67715;46.170;6.140;2023-04-05T15:33:23;8.25;;;4.35;;